YXES weather

Esk Hospital Helipad
Esk, Queensland, Australia

Public forecast

Using degrees Celsius for public forecast. Weather courtesy of forecast.io.

METAR (pilot weather report)

Closest report is RAAF Base Amberley, 28.7 nm (53.1 km) SSE. Retrieved 2019/04/20 09:30 UTC (19 minutes ago):

YAMB 200930Z AUTO 10007KT 9999 -SHRA SCT025 SCT040 BKN045 21/19 Q1021 RESHRA

TAF (pilot weather forecast)

Closest forecast is RAAF Base Amberley, 28.7 nm (53.1 km) SSE. Retrieved 2019/04/20 06:00 UTC (4 hours ago):

TAF YAMB 200458Z 2006/2024 12014KT 9999 -SHRA SCT025 BKN045 FM201000 14007KT 9999 -SHRA SCT015 BKN045 INTER 2006/2018 VRB15G25KT 3000 -SHRA BKN015